sensor_id;sensor_type;location;lat;lon;timestamp;P1;durP1;ratioP1;P2;durP2;ratioP2
35743;SDS011;21867;52.012;4.324;2022-10-17T00:00:17;4.53;;;3.00;;
35743;SDS011;21867;52.012;4.324;2022-10-17T00:02:44;2.80;;;2.50;;
35743;SDS011;21867;52.012;4.324;2022-10-17T00:05:12;5.00;;;2.50;;
35743;SDS011;21867;52.012;4.324;2022-10-17T00:07:40;3.37;;;3.10;;
35743;SDS011;21867;52.012;4.324;2022-10-17T00:10:07;4.53;;;3.57;;
35743;SDS011;21867;52.012;4.324;2022-10-17T00:12:34;4.03;;;2.60;;
35743;SDS011;21867;52.012;4.324;2022-10-17T00:15:02;4.57;;;2.57;;
35743;SDS011;21867;52.012;4.324;2022-10-17T00:17:30;3.80;;;2.93;;
35743;SDS011;21867;52.012;4.324;2022-10-17T00:19:57;4.27;;;2.83;;
35743;SDS011;21867;52.012;4.324;2022-10-17T00:22:26;3.83;;;2.47;;
35743;SDS011;21867;52.012;4.324;2022-10-17T00:24:57;3.33;;;3.03;;
35743;SDS011;21867;52.012;4.324;2022-10-17T00:27:40;5.80;;;2.57;;
35743;SDS011;21867;52.012;4.324;2022-10-17T00:30:09;2.77;;;2.57;;
35743;SDS011;21867;52.012;4.324;2022-10-17T00:32:36;4.80;;;2.60;;
35743;SDS011;21867;52.012;4.324;2022-10-17T00:35:04;3.50;;;2.73;;
35743;SDS011;21867;52.012;4.324;2022-10-17T00:37:33;5.50;;;3.10;;
35743;SDS011;21867;52.012;4.324;2022-10-17T00:40:01;3.03;;;2.73;;
35743;SDS011;21867;52.012;4.324;2022-10-17T00:42:28;3.30;;;2.80;;
35743;SDS011;21867;52.012;4.324;2022-10-17T00:44:58;3.73;;;3.43;;
35743;SDS011;21867;52.012;4.324;2022-10-17T00:47:26;3.13;;;2.80;;
35743;SDS011;21867;52.012;4.324;2022-10-17T00:49:54;5.90;;;3.40;;
35743;SDS011;21867;52.012;4.324;2022-10-17T00:52:26;3.37;;;2.90;;
35743;SDS011;21867;52.012;4.324;2022-10-17T00:54:57;4.13;;;2.50;;
35743;SDS011;21867;52.012;4.324;2022-10-17T00:57:25;4.50;;;3.33;;
35743;SDS011;21867;52.012;4.324;2022-10-17T01:03:47;4.53;;;3.40;;
35743;SDS011;21867;52.012;4.324;2022-10-17T01:06:16;3.30;;;2.20;;
35743;SDS011;21867;52.012;4.324;2022-10-17T01:08:43;3.47;;;3.10;;
35743;SDS011;21867;52.012;4.324;2022-10-17T01:11:19;4.30;;;3.10;;
35743;SDS011;21867;52.012;4.324;2022-10-17T01:13:49;3.63;;;3.17;;
35743;SDS011;21867;52.012;4.324;2022-10-17T01:16:19;8.43;;;3.70;;
35743;SDS011;21867;52.012;4.324;2022-10-17T01:18:54;3.63;;;3.33;;
35743;SDS011;21867;52.012;4.324;2022-10-17T01:21:32;5.07;;;3.40;;
35743;SDS011;21867;52.012;4.324;2022-10-17T01:26:54;6.13;;;4.30;;
35743;SDS011;21867;52.012;4.324;2022-10-17T01:29:32;4.27;;;3.63;;
35743;SDS011;21867;52.012;4.324;2022-10-17T01:32:03;4.20;;;3.90;;
35743;SDS011;21867;52.012;4.324;2022-10-17T01:34:37;3.93;;;3.23;;
35743;SDS011;21867;52.012;4.324;2022-10-17T01:37:05;4.00;;;3.47;;
35743;SDS011;21867;52.012;4.324;2022-10-17T01:39:38;8.13;;;4.13;;
35743;SDS011;21867;52.012;4.324;2022-10-17T01:44:57;8.43;;;3.90;;
35743;SDS011;21867;52.012;4.324;2022-10-17T01:47:26;4.67;;;4.27;;
35743;SDS011;21867;52.012;4.324;2022-10-17T01:49:55;4.93;;;4.33;;
35743;SDS011;21867;52.012;4.324;2022-10-17T01:52:25;5.77;;;3.70;;
35743;SDS011;21867;52.012;4.324;2022-10-17T01:54:53;6.73;;;5.07;;
35743;SDS011;21867;52.012;4.324;2022-10-17T01:57:22;4.33;;;3.50;;
35743;SDS011;21867;52.012;4.324;2022-10-17T01:59:52;5.30;;;4.63;;
35743;SDS011;21867;52.012;4.324;2022-10-17T02:02:21;5.07;;;4.53;;
35743;SDS011;21867;52.012;4.324;2022-10-17T02:04:50;4.83;;;3.77;;
35743;SDS011;21867;52.012;4.324;2022-10-17T02:07:18;5.80;;;4.97;;
35743;SDS011;21867;52.012;4.324;2022-10-17T02:09:45;4.97;;;4.47;;
35743;SDS011;21867;52.012;4.324;2022-10-17T02:15:14;9.13;;;5.00;;
35743;SDS011;21867;52.012;4.324;2022-10-17T02:17:45;5.10;;;4.60;;
35743;SDS011;21867;52.012;4.324;2022-10-17T02:20:21;4.37;;;2.93;;
35743;SDS011;21867;52.012;4.324;2022-10-17T02:22:51;4.33;;;3.63;;
35743;SDS011;21867;52.012;4.324;2022-10-17T02:25:22;5.03;;;3.93;;
35743;SDS011;21867;52.012;4.324;2022-10-17T02:27:53;5.77;;;3.97;;
35743;SDS011;21867;52.012;4.324;2022-10-17T02:30:26;7.97;;;4.90;;
35743;SDS011;21867;52.012;4.324;2022-10-17T02:32:57;4.97;;;4.50;;
35743;SDS011;21867;52.012;4.324;2022-10-17T02:35:27;7.57;;;4.43;;
35743;SDS011;21867;52.012;4.324;2022-10-17T02:37:56;5.23;;;4.47;;
35743;SDS011;21867;52.012;4.324;2022-10-17T02:40:24;5.17;;;4.50;;
35743;SDS011;21867;52.012;4.324;2022-10-17T02:42:52;4.40;;;3.20;;
35743;SDS011;21867;52.012;4.324;2022-10-17T02:45:24;4.80;;;4.40;;
35743;SDS011;21867;52.012;4.324;2022-10-17T02:47:56;5.40;;;4.90;;
35743;SDS011;21867;52.012;4.324;2022-10-17T02:50:27;7.23;;;4.43;;
35743;SDS011;21867;52.012;4.324;2022-10-17T02:53:00;5.77;;;5.23;;
35743;SDS011;21867;52.012;4.324;2022-10-17T02:55:31;5.17;;;4.63;;
35743;SDS011;21867;52.012;4.324;2022-10-17T02:58:01;5.63;;;5.10;;
35743;SDS011;21867;52.012;4.324;2022-10-17T03:00:30;6.30;;;4.83;;
35743;SDS011;21867;52.012;4.324;2022-10-17T03:02:57;6.47;;;4.83;;
35743;SDS011;21867;52.012;4.324;2022-10-17T03:05:27;4.53;;;3.93;;
35743;SDS011;21867;52.012;4.324;2022-10-17T03:07:55;9.67;;;4.33;;
35743;SDS011;21867;52.012;4.324;2022-10-17T03:10:23;3.63;;;3.33;;
35743;SDS011;21867;52.012;4.324;2022-10-17T03:12:51;6.13;;;5.07;;
35743;SDS011;21867;52.012;4.324;2022-10-17T03:15:19;5.33;;;4.83;;
35743;SDS011;21867;52.012;4.324;2022-10-17T03:17:46;6.90;;;4.97;;
35743;SDS011;21867;52.012;4.324;2022-10-17T03:20:14;5.10;;;4.70;;
35743;SDS011;21867;52.012;4.324;2022-10-17T03:22:43;11.17;;;5.93;;
35743;SDS011;21867;52.012;4.324;2022-10-17T03:25:17;4.70;;;4.30;;
35743;SDS011;21867;52.012;4.324;2022-10-17T03:27:47;5.63;;;4.90;;
35743;SDS011;21867;52.012;4.324;2022-10-17T03:30:14;5.30;;;4.30;;
35743;SDS011;21867;52.012;4.324;2022-10-17T03:32:42;7.37;;;5.40;;
35743;SDS011;21867;52.012;4.324;2022-10-17T03:35:09;4.90;;;4.30;;
35743;SDS011;21867;52.012;4.324;2022-10-17T03:37:44;4.17;;;3.80;;
35743;SDS011;21867;52.012;4.324;2022-10-17T03:40:12;5.10;;;4.60;;
35743;SDS011;21867;52.012;4.324;2022-10-17T03:42:39;10.03;;;5.03;;
35743;SDS011;21867;52.012;4.324;2022-10-17T03:45:07;6.47;;;4.70;;
35743;SDS011;21867;52.012;4.324;2022-10-17T03:47:34;4.90;;;3.70;;
35743;SDS011;21867;52.012;4.324;2022-10-17T03:50:02;5.73;;;5.20;;
35743;SDS011;21867;52.012;4.324;2022-10-17T03:52:33;6.30;;;4.83;;
35743;SDS011;21867;52.012;4.324;2022-10-17T03:55:09;7.40;;;4.70;;
35743;SDS011;21867;52.012;4.324;2022-10-17T03:57:38;6.60;;;5.63;;
35743;SDS011;21867;52.012;4.324;2022-10-17T04:00:10;8.20;;;5.93;;
35743;SDS011;21867;52.012;4.324;2022-10-17T04:02:40;5.30;;;4.50;;
35743;SDS011;21867;52.012;4.324;2022-10-17T04:05:14;6.60;;;5.33;;
35743;SDS011;21867;52.012;4.324;2022-10-17T04:07:41;4.30;;;3.13;;
35743;SDS011;21867;52.012;4.324;2022-10-17T04:10:11;5.67;;;5.17;;
35743;SDS011;21867;52.012;4.324;2022-10-17T04:12:38;7.93;;;4.90;;
35743;SDS011;21867;52.012;4.324;2022-10-17T04:15:06;7.23;;;5.40;;
35743;SDS011;21867;52.012;4.324;2022-10-17T04:17:34;6.70;;;5.97;;
35743;SDS011;21867;52.012;4.324;2022-10-17T04:20:05;4.63;;;4.17;;
35743;SDS011;21867;52.012;4.324;2022-10-17T04:22:32;5.73;;;5.20;;
35743;SDS011;21867;52.012;4.324;2022-10-17T04:25:00;11.13;;;7.47;;
35743;SDS011;21867;52.012;4.324;2022-10-17T04:27:36;7.10;;;4.83;;
35743;SDS011;21867;52.012;4.324;2022-10-17T04:30:05;6.37;;;5.73;;
35743;SDS011;21867;52.012;4.324;2022-10-17T04:32:34;7.20;;;5.37;;
35743;SDS011;21867;52.012;4.324;2022-10-17T04:35:08;8.70;;;4.50;;
35743;SDS011;21867;52.012;4.324;2022-10-17T04:37:37;6.00;;;5.40;;
35743;SDS011;21867;52.012;4.324;2022-10-17T04:40:11;5.77;;;4.50;;
35743;SDS011;21867;52.012;4.324;2022-10-17T04:42:42;5.67;;;4.50;;
35743;SDS011;21867;52.012;4.324;2022-10-17T04:45:11;5.67;;;4.97;;
35743;SDS011;21867;52.012;4.324;2022-10-17T04:47:40;5.43;;;4.87;;
35743;SDS011;21867;52.012;4.324;2022-10-17T04:50:07;6.43;;;5.03;;
35743;SDS011;21867;52.012;4.324;2022-10-17T04:52:35;7.07;;;4.77;;
35743;SDS011;21867;52.012;4.324;2022-10-17T04:55:02;8.73;;;5.37;;
35743;SDS011;21867;52.012;4.324;2022-10-17T04:57:40;7.53;;;4.60;;
35743;SDS011;21867;52.012;4.324;2022-10-17T05:00:15;6.40;;;4.87;;
35743;SDS011;21867;52.012;4.324;2022-10-17T05:02:54;6.17;;;4.30;;
35743;SDS011;21867;52.012;4.324;2022-10-17T05:05:21;5.80;;;4.87;;
35743;SDS011;21867;52.012;4.324;2022-10-17T05:07:51;5.50;;;4.90;;
35743;SDS011;21867;52.012;4.324;2022-10-17T05:10:22;5.57;;;5.07;;
35743;SDS011;21867;52.012;4.324;2022-10-17T05:12:53;7.00;;;5.73;;
35743;SDS011;21867;52.012;4.324;2022-10-17T05:15:24;5.13;;;4.63;;
35743;SDS011;21867;52.012;4.324;2022-10-17T05:17:53;6.53;;;5.03;;
35743;SDS011;21867;52.012;4.324;2022-10-17T05:20:21;5.53;;;4.40;;
35743;SDS011;21867;52.012;4.324;2022-10-17T05:22:48;10.73;;;5.40;;
35743;SDS011;21867;52.012;4.324;2022-10-17T05:25:16;9.57;;;6.03;;
35743;SDS011;21867;52.012;4.324;2022-10-17T05:27:44;5.27;;;4.70;;
35743;SDS011;21867;52.012;4.324;2022-10-17T05:30:12;9.23;;;6.07;;
35743;SDS011;21867;52.012;4.324;2022-10-17T05:32:40;6.10;;;5.50;;
35743;SDS011;21867;52.012;4.324;2022-10-17T05:35:07;6.07;;;5.07;;
35743;SDS011;21867;52.012;4.324;2022-10-17T05:37:36;10.57;;;4.83;;
35743;SDS011;21867;52.012;4.324;2022-10-17T05:40:04;11.33;;;5.80;;
35743;SDS011;21867;52.012;4.324;2022-10-17T05:42:32;7.13;;;5.17;;
35743;SDS011;21867;52.012;4.324;2022-10-17T05:45:00;7.07;;;5.67;;
35743;SDS011;21867;52.012;4.324;2022-10-17T05:47:32;5.87;;;4.30;;
35743;SDS011;21867;52.012;4.324;2022-10-17T05:49:59;8.60;;;5.90;;
35743;SDS011;21867;52.012;4.324;2022-10-17T05:52:33;7.20;;;5.53;;
35743;SDS011;21867;52.012;4.324;2022-10-17T05:55:06;4.90;;;4.40;;
35743;SDS011;21867;52.012;4.324;2022-10-17T05:57:34;11.93;;;6.50;;
35743;SDS011;21867;52.012;4.324;2022-10-17T06:00:04;7.60;;;5.97;;
35743;SDS011;21867;52.012;4.324;2022-10-17T06:02:44;5.37;;;4.87;;
35743;SDS011;21867;52.012;4.324;2022-10-17T06:05:13;5.93;;;4.10;;
35743;SDS011;21867;52.012;4.324;2022-10-17T06:07:40;6.93;;;6.20;;
35743;SDS011;21867;52.012;4.324;2022-10-17T06:10:08;13.73;;;6.60;;
35743;SDS011;21867;52.012;4.324;2022-10-17T06:12:35;7.07;;;6.07;;
35743;SDS011;21867;52.012;4.324;2022-10-17T06:15:03;11.20;;;6.50;;
35743;SDS011;21867;52.012;4.324;2022-10-17T06:17:30;5.83;;;5.33;;
35743;SDS011;21867;52.012;4.324;2022-10-17T06:19:59;6.37;;;5.67;;
35743;SDS011;21867;52.012;4.324;2022-10-17T06:22:26;6.60;;;4.07;;
35743;SDS011;21867;52.012;4.324;2022-10-17T06:24:55;6.97;;;5.43;;
35743;SDS011;21867;52.012;4.324;2022-10-17T06:27:22;6.23;;;5.60;;
35743;SDS011;21867;52.012;4.324;2022-10-17T06:29:49;8.23;;;7.27;;
35743;SDS011;21867;52.012;4.324;2022-10-17T06:32:16;10.73;;;6.13;;
35743;SDS011;21867;52.012;4.324;2022-10-17T06:34:45;9.13;;;5.90;;
35743;SDS011;21867;52.012;4.324;2022-10-17T06:37:14;7.33;;;6.17;;
35743;SDS011;21867;52.012;4.324;2022-10-17T06:39:44;5.23;;;4.70;;
35743;SDS011;21867;52.012;4.324;2022-10-17T06:42:14;6.00;;;4.53;;
35743;SDS011;21867;52.012;4.324;2022-10-17T06:45:14;10.17;;;5.80;;
35743;SDS011;21867;52.012;4.324;2022-10-17T06:47:55;6.43;;;4.83;;
35743;SDS011;21867;52.012;4.324;2022-10-17T06:50:38;9.47;;;6.97;;
35743;SDS011;21867;52.012;4.324;2022-10-17T06:53:13;7.63;;;5.93;;
35743;SDS011;21867;52.012;4.324;2022-10-17T06:56:09;15.60;;;6.73;;
35743;SDS011;21867;52.012;4.324;2022-10-17T06:59:03;6.80;;;6.10;;
35743;SDS011;21867;52.012;4.324;2022-10-17T07:01:34;6.20;;;5.43;;
35743;SDS011;21867;52.012;4.324;2022-10-17T07:04:03;7.07;;;6.33;;
35743;SDS011;21867;52.012;4.324;2022-10-17T07:06:32;9.43;;;6.30;;
35743;SDS011;21867;52.012;4.324;2022-10-17T07:09:07;10.00;;;7.13;;
35743;SDS011;21867;52.012;4.324;2022-10-17T07:11:35;5.87;;;5.33;;
35743;SDS011;21867;52.012;4.324;2022-10-17T07:14:02;7.00;;;6.33;;
35743;SDS011;21867;52.012;4.324;2022-10-17T07:16:30;8.03;;;6.33;;
35743;SDS011;21867;52.012;4.324;2022-10-17T07:19:06;14.53;;;7.23;;
35743;SDS011;21867;52.012;4.324;2022-10-17T07:21:36;7.87;;;7.03;;
35743;SDS011;21867;52.012;4.324;2022-10-17T07:24:07;8.50;;;6.50;;
35743;SDS011;21867;52.012;4.324;2022-10-17T07:26:46;9.00;;;6.13;;
35743;SDS011;21867;52.012;4.324;2022-10-17T07:29:15;13.17;;;8.47;;
35743;SDS011;21867;52.012;4.324;2022-10-17T07:31:55;13.23;;;8.03;;
35743;SDS011;21867;52.012;4.324;2022-10-17T07:34:22;8.57;;;6.70;;
35743;SDS011;21867;52.012;4.324;2022-10-17T07:36:50;7.40;;;6.50;;
35743;SDS011;21867;52.012;4.324;2022-10-17T07:39:18;10.20;;;5.43;;
35743;SDS011;21867;52.012;4.324;2022-10-17T07:41:47;9.80;;;6.77;;
35743;SDS011;21867;52.012;4.324;2022-10-17T07:44:14;8.90;;;6.77;;
35743;SDS011;21867;52.012;4.324;2022-10-17T07:46:45;14.53;;;8.37;;
35743;SDS011;21867;52.012;4.324;2022-10-17T07:49:13;14.00;;;7.10;;
35743;SDS011;21867;52.012;4.324;2022-10-17T07:51:40;9.87;;;5.80;;
35743;SDS011;21867;52.012;4.324;2022-10-17T07:54:08;8.03;;;7.23;;
35743;SDS011;21867;52.012;4.324;2022-10-17T07:56:36;8.77;;;6.03;;
35743;SDS011;21867;52.012;4.324;2022-10-17T07:59:04;8.23;;;6.73;;
35743;SDS011;21867;52.012;4.324;2022-10-17T08:01:34;10.53;;;6.63;;
35743;SDS011;21867;52.012;4.324;2022-10-17T08:04:02;8.87;;;8.00;;
35743;SDS011;21867;52.012;4.324;2022-10-17T08:09:54;6.70;;;5.30;;
35743;SDS011;21867;52.012;4.324;2022-10-17T08:12:29;12.33;;;7.23;;
35743;SDS011;21867;52.012;4.324;2022-10-17T08:14:57;7.47;;;6.13;;
35743;SDS011;21867;52.012;4.324;2022-10-17T08:17:24;7.53;;;6.03;;
35743;SDS011;21867;52.012;4.324;2022-10-17T08:19:52;8.10;;;7.27;;
35743;SDS011;21867;52.012;4.324;2022-10-17T08:22:19;8.30;;;6.07;;
35743;SDS011;21867;52.012;4.324;2022-10-17T08:24:47;8.57;;;7.20;;
35743;SDS011;21867;52.012;4.324;2022-10-17T08:27:14;9.30;;;6.60;;
35743;SDS011;21867;52.012;4.324;2022-10-17T08:29:43;8.80;;;6.27;;
35743;SDS011;21867;52.012;4.324;2022-10-17T08:32:10;7.33;;;5.97;;
35743;SDS011;21867;52.012;4.324;2022-10-17T08:34:37;12.80;;;7.00;;
35743;SDS011;21867;52.012;4.324;2022-10-17T08:37:08;7.77;;;6.63;;
35743;SDS011;21867;52.012;4.324;2022-10-17T08:39:36;9.00;;;7.03;;
35743;SDS011;21867;52.012;4.324;2022-10-17T08:42:09;7.23;;;6.57;;
35743;SDS011;21867;52.012;4.324;2022-10-17T08:44:40;9.53;;;6.60;;
35743;SDS011;21867;52.012;4.324;2022-10-17T08:47:11;9.07;;;6.63;;
35743;SDS011;21867;52.012;4.324;2022-10-17T08:49:40;7.90;;;6.40;;
35743;SDS011;21867;52.012;4.324;2022-10-17T08:52:10;7.27;;;6.53;;
35743;SDS011;21867;52.012;4.324;2022-10-17T09:03:12;12.30;;;7.40;;
35743;SDS011;21867;52.012;4.324;2022-10-17T09:05:43;7.37;;;6.40;;
35743;SDS011;21867;52.012;4.324;2022-10-17T09:08:19;11.00;;;6.83;;
35743;SDS011;21867;52.012;4.324;2022-10-17T09:11:05;8.90;;;7.13;;
35743;SDS011;21867;52.012;4.324;2022-10-17T09:16:45;7.80;;;6.13;;
35743;SDS011;21867;52.012;4.324;2022-10-17T09:19:18;12.17;;;7.03;;
35743;SDS011;21867;52.012;4.324;2022-10-17T09:21:48;11.90;;;7.27;;
35743;SDS011;21867;52.012;4.324;2022-10-17T09:24:18;9.43;;;7.20;;
35743;SDS011;21867;52.012;4.324;2022-10-17T09:26:46;7.17;;;6.47;;
35743;SDS011;21867;52.012;4.324;2022-10-17T09:29:14;8.37;;;7.67;;
35743;SDS011;21867;52.012;4.324;2022-10-17T09:31:44;9.93;;;7.67;;
35743;SDS011;21867;52.012;4.324;2022-10-17T09:34:12;11.13;;;6.37;;
35743;SDS011;21867;52.012;4.324;2022-10-17T09:36:41;10.00;;;6.50;;
35743;SDS011;21867;52.012;4.324;2022-10-17T09:39:10;9.27;;;6.37;;
35743;SDS011;21867;52.012;4.324;2022-10-17T09:41:38;8.23;;;5.90;;
35743;SDS011;21867;52.012;4.324;2022-10-17T09:44:13;7.40;;;6.23;;
35743;SDS011;21867;52.012;4.324;2022-10-17T09:46:42;6.53;;;5.67;;
35743;SDS011;21867;52.012;4.324;2022-10-17T09:49:13;7.00;;;6.30;;
35743;SDS011;21867;52.012;4.324;2022-10-17T09:51:44;8.10;;;6.23;;
35743;SDS011;21867;52.012;4.324;2022-10-17T09:54:17;7.00;;;5.90;;
35743;SDS011;21867;52.012;4.324;2022-10-17T09:56:56;7.80;;;6.57;;
35743;SDS011;21867;52.012;4.324;2022-10-17T10:02:18;8.27;;;6.40;;
35743;SDS011;21867;52.012;4.324;2022-10-17T10:04:59;9.80;;;6.07;;
35743;SDS011;21867;52.012;4.324;2022-10-17T10:07:34;11.23;;;6.13;;
35743;SDS011;21867;52.012;4.324;2022-10-17T10:10:02;6.03;;;5.50;;
35743;SDS011;21867;52.012;4.324;2022-10-17T10:12:31;7.83;;;4.97;;
35743;SDS011;21867;52.012;4.324;2022-10-17T10:14:59;10.00;;;4.83;;
35743;SDS011;21867;52.012;4.324;2022-10-17T10:17:34;7.10;;;5.10;;
35743;SDS011;21867;52.012;4.324;2022-10-17T10:20:03;15.63;;;4.87;;
35743;SDS011;21867;52.012;4.324;2022-10-17T10:23:04;5.30;;;4.80;;
35743;SDS011;21867;52.012;4.324;2022-10-17T10:25:31;5.60;;;5.00;;
35743;SDS011;21867;52.012;4.324;2022-10-17T10:27:59;4.87;;;4.47;;
35743;SDS011;21867;52.012;4.324;2022-10-17T10:30:27;3.30;;;3.00;;
35743;SDS011;21867;52.012;4.324;2022-10-17T10:32:58;6.40;;;3.80;;
35743;SDS011;21867;52.012;4.324;2022-10-17T10:35:28;8.20;;;3.73;;
35743;SDS011;21867;52.012;4.324;2022-10-17T10:37:57;6.10;;;3.43;;
35743;SDS011;21867;52.012;4.324;2022-10-17T10:40:26;3.93;;;3.00;;
35743;SDS011;21867;52.012;4.324;2022-10-17T10:42:55;3.30;;;2.83;;
35743;SDS011;21867;52.012;4.324;2022-10-17T10:45:38;4.37;;;2.90;;
35743;SDS011;21867;52.012;4.324;2022-10-17T10:48:17;4.30;;;2.50;;
35743;SDS011;21867;52.012;4.324;2022-10-17T10:50:45;2.90;;;2.50;;
35743;SDS011;21867;52.012;4.324;2022-10-17T10:53:17;3.67;;;2.67;;
35743;SDS011;21867;52.012;4.324;2022-10-17T10:55:52;3.97;;;2.67;;
35743;SDS011;21867;52.012;4.324;2022-10-17T10:58:25;3.40;;;2.90;;
35743;SDS011;21867;52.012;4.324;2022-10-17T11:00:54;3.10;;;2.40;;
35743;SDS011;21867;52.012;4.324;2022-10-17T11:03:22;5.57;;;1.97;;
35743;SDS011;21867;52.012;4.324;2022-10-17T11:05:54;4.07;;;2.20;;
35743;SDS011;21867;52.012;4.324;2022-10-17T11:08:25;2.63;;;2.07;;
35743;SDS011;21867;52.012;4.324;2022-10-17T11:11:04;2.80;;;2.50;;
35743;SDS011;21867;52.012;4.324;2022-10-17T11:13:35;2.80;;;2.53;;
35743;SDS011;21867;52.012;4.324;2022-10-17T11:16:14;3.23;;;2.73;;
35743;SDS011;21867;52.012;4.324;2022-10-17T11:18:43;4.10;;;2.30;;
35743;SDS011;21867;52.012;4.324;2022-10-17T11:21:14;2.67;;;2.27;;
35743;SDS011;21867;52.012;4.324;2022-10-17T11:26:29;2.60;;;2.30;;
35743;SDS011;21867;52.012;4.324;2022-10-17T11:28:59;3.53;;;2.43;;
35743;SDS011;21867;52.012;4.324;2022-10-17T11:31:29;5.20;;;2.80;;
35743;SDS011;21867;52.012;4.324;2022-10-17T11:33:58;3.33;;;2.47;;
35743;SDS011;21867;52.012;4.324;2022-10-17T11:36:27;4.97;;;2.87;;
35743;SDS011;21867;52.012;4.324;2022-10-17T11:38:56;3.37;;;3.10;;
35743;SDS011;21867;52.012;4.324;2022-10-17T11:41:27;3.33;;;2.93;;
35743;SDS011;21867;52.012;4.324;2022-10-17T11:43:58;5.17;;;3.37;;
35743;SDS011;21867;52.012;4.324;2022-10-17T11:46:29;3.37;;;3.10;;
35743;SDS011;21867;52.012;4.324;2022-10-17T11:48:59;6.20;;;3.63;;
35743;SDS011;21867;52.012;4.324;2022-10-17T11:51:28;4.00;;;3.03;;
35743;SDS011;21867;52.012;4.324;2022-10-17T11:54:16;5.53;;;2.70;;
35743;SDS011;21867;52.012;4.324;2022-10-17T11:56:47;3.70;;;3.40;;
35743;SDS011;21867;52.012;4.324;2022-10-17T11:59:26;3.17;;;2.90;;
35743;SDS011;21867;52.012;4.324;2022-10-17T12:01:59;4.40;;;3.17;;
35743;SDS011;21867;52.012;4.324;2022-10-17T12:04:30;4.20;;;3.30;;
35743;SDS011;21867;52.012;4.324;2022-10-17T12:07:13;3.33;;;3.03;;
35743;SDS011;21867;52.012;4.324;2022-10-17T12:09:45;2.53;;;2.33;;
35743;SDS011;21867;52.012;4.324;2022-10-17T12:12:22;8.00;;;2.90;;
35743;SDS011;21867;52.012;4.324;2022-10-17T12:17:54;2.70;;;2.40;;
35743;SDS011;21867;52.012;4.324;2022-10-17T12:20:24;2.73;;;2.27;;
35743;SDS011;21867;52.012;4.324;2022-10-17T12:22:52;3.93;;;2.77;;
35743;SDS011;21867;52.012;4.324;2022-10-17T12:25:20;2.73;;;2.20;;
35743;SDS011;21867;52.012;4.324;2022-10-17T12:30:34;3.30;;;2.60;;
35743;SDS011;21867;52.012;4.324;2022-10-17T12:33:04;3.17;;;2.43;;
35743;SDS011;21867;52.012;4.324;2022-10-17T12:35:35;3.90;;;2.60;;
35743;SDS011;21867;52.012;4.324;2022-10-17T12:40:58;5.67;;;2.60;;
35743;SDS011;21867;52.012;4.324;2022-10-17T12:43:45;3.97;;;3.00;;
35743;SDS011;21867;52.012;4.324;2022-10-17T12:46:16;2.80;;;2.10;;
35743;SDS011;21867;52.012;4.324;2022-10-17T12:49:15;4.87;;;2.47;;
35743;SDS011;21867;52.012;4.324;2022-10-17T12:54:56;5.10;;;2.83;;
35743;SDS011;21867;52.012;4.324;2022-10-17T12:57:40;4.40;;;2.50;;
35743;SDS011;21867;52.012;4.324;2022-10-17T13:00:13;3.00;;;2.17;;
35743;SDS011;21867;52.012;4.324;2022-10-17T13:02:41;4.77;;;2.37;;
35743;SDS011;21867;52.012;4.324;2022-10-17T13:05:26;3.20;;;2.27;;
35743;SDS011;21867;52.012;4.324;2022-10-17T13:07:54;4.23;;;2.00;;
35743;SDS011;21867;52.012;4.324;2022-10-17T13:10:23;3.30;;;2.60;;
35743;SDS011;21867;52.012;4.324;2022-10-17T13:13:23;4.20;;;2.37;;
35743;SDS011;21867;52.012;4.324;2022-10-17T13:15:52;4.63;;;2.10;;
35743;SDS011;21867;52.012;4.324;2022-10-17T13:18:20;3.43;;;2.20;;
35743;SDS011;21867;52.012;4.324;2022-10-17T13:20:56;3.90;;;2.30;;
35743;SDS011;21867;52.012;4.324;2022-10-17T13:23:24;4.50;;;2.73;;
35743;SDS011;21867;52.012;4.324;2022-10-17T13:26:01;2.60;;;2.23;;
35743;SDS011;21867;52.012;4.324;2022-10-17T13:28:29;4.47;;;2.70;;
35743;SDS011;21867;52.012;4.324;2022-10-17T13:31:01;6.83;;;3.10;;
35743;SDS011;21867;52.012;4.324;2022-10-17T13:33:30;4.80;;;2.30;;
35743;SDS011;21867;52.012;4.324;2022-10-17T13:35:59;5.60;;;2.30;;
35743;SDS011;21867;52.012;4.324;2022-10-17T13:38:34;4.73;;;2.37;;
35743;SDS011;21867;52.012;4.324;2022-10-17T13:41:09;6.23;;;2.40;;
35743;SDS011;21867;52.012;4.324;2022-10-17T13:43:57;4.70;;;2.53;;
35743;SDS011;21867;52.012;4.324;2022-10-17T13:46:25;4.73;;;2.43;;
35743;SDS011;21867;52.012;4.324;2022-10-17T13:49:08;5.13;;;2.70;;
35743;SDS011;21867;52.012;4.324;2022-10-17T13:51:40;8.13;;;2.67;;
35743;SDS011;21867;52.012;4.324;2022-10-17T13:54:15;5.13;;;2.53;;
35743;SDS011;21867;52.012;4.324;2022-10-17T13:56:43;5.43;;;2.90;;
35743;SDS011;21867;52.012;4.324;2022-10-17T13:59:16;6.80;;;2.87;;
35743;SDS011;21867;52.012;4.324;2022-10-17T14:01:45;3.40;;;2.10;;
35743;SDS011;21867;52.012;4.324;2022-10-17T14:04:12;3.47;;;2.30;;
35743;SDS011;21867;52.012;4.324;2022-10-17T14:06:47;6.03;;;2.77;;
35743;SDS011;21867;52.012;4.324;2022-10-17T14:09:19;6.23;;;3.40;;
35743;SDS011;21867;52.012;4.324;2022-10-17T14:11:55;4.73;;;3.03;;
35743;SDS011;21867;52.012;4.324;2022-10-17T14:14:23;4.67;;;2.50;;
35743;SDS011;21867;52.012;4.324;2022-10-17T14:16:51;5.00;;;2.67;;
35743;SDS011;21867;52.012;4.324;2022-10-17T14:19:22;5.73;;;2.90;;
35743;SDS011;21867;52.012;4.324;2022-10-17T14:21:53;5.13;;;2.33;;
35743;SDS011;21867;52.012;4.324;2022-10-17T14:24:26;3.80;;;2.70;;
35743;SDS011;21867;52.012;4.324;2022-10-17T14:32:32;6.00;;;2.40;;
35743;SDS011;21867;52.012;4.324;2022-10-17T14:35:01;6.23;;;2.63;;
35743;SDS011;21867;52.012;4.324;2022-10-17T14:37:57;4.57;;;2.57;;
35743;SDS011;21867;52.012;4.324;2022-10-17T14:40:30;3.97;;;2.77;;
35743;SDS011;21867;52.012;4.324;2022-10-17T14:42:59;5.67;;;3.40;;
35743;SDS011;21867;52.012;4.324;2022-10-17T14:45:27;4.87;;;2.50;;
35743;SDS011;21867;52.012;4.324;2022-10-17T14:47:56;7.17;;;2.63;;
35743;SDS011;21867;52.012;4.324;2022-10-17T14:50:27;4.23;;;2.63;;
35743;SDS011;21867;52.012;4.324;2022-10-17T14:53:00;3.13;;;2.27;;
35743;SDS011;21867;52.012;4.324;2022-10-17T14:55:29;4.57;;;2.30;;
35743;SDS011;21867;52.012;4.324;2022-10-17T14:57:57;9.97;;;2.17;;
35743;SDS011;21867;52.012;4.324;2022-10-17T15:00:24;8.27;;;2.67;;
35743;SDS011;21867;52.012;4.324;2022-10-17T15:02:52;7.37;;;2.93;;
35743;SDS011;21867;52.012;4.324;2022-10-17T15:05:20;4.83;;;2.73;;
35743;SDS011;21867;52.012;4.324;2022-10-17T15:07:53;2.80;;;2.10;;
35743;SDS011;21867;52.012;4.324;2022-10-17T15:10:27;5.60;;;2.63;;
35743;SDS011;21867;52.012;4.324;2022-10-17T15:12:56;3.00;;;2.73;;
35743;SDS011;21867;52.012;4.324;2022-10-17T15:15:43;4.77;;;2.93;;
35743;SDS011;21867;52.012;4.324;2022-10-17T15:18:11;3.37;;;2.33;;
35743;SDS011;21867;52.012;4.324;2022-10-17T15:20:38;6.37;;;2.30;;
35743;SDS011;21867;52.012;4.324;2022-10-17T15:23:05;5.80;;;3.10;;
35743;SDS011;21867;52.012;4.324;2022-10-17T15:25:34;6.13;;;2.93;;
35743;SDS011;21867;52.012;4.324;2022-10-17T15:28:15;4.93;;;2.93;;
35743;SDS011;21867;52.012;4.324;2022-10-17T15:30:42;6.70;;;2.97;;
35743;SDS011;21867;52.012;4.324;2022-10-17T15:33:10;7.43;;;2.53;;
35743;SDS011;21867;52.012;4.324;2022-10-17T15:35:37;4.33;;;2.73;;
35743;SDS011;21867;52.012;4.324;2022-10-17T15:38:07;6.77;;;3.03;;
35743;SDS011;21867;52.012;4.324;2022-10-17T15:40:36;6.57;;;2.27;;
35743;SDS011;21867;52.012;4.324;2022-10-17T15:43:03;9.13;;;2.77;;
35743;SDS011;21867;52.012;4.324;2022-10-17T15:45:30;10.30;;;2.87;;
35743;SDS011;21867;52.012;4.324;2022-10-17T15:47:59;9.40;;;3.40;;
35743;SDS011;21867;52.012;4.324;2022-10-17T15:50:28;6.27;;;2.50;;
35743;SDS011;21867;52.012;4.324;2022-10-17T15:52:56;6.23;;;2.27;;
35743;SDS011;21867;52.012;4.324;2022-10-17T15:55:23;3.17;;;2.10;;
35743;SDS011;21867;52.012;4.324;2022-10-17T15:57:51;5.40;;;2.20;;